Detall de PIREP

Printer-friendly versionPDF version

[2012/11/02 10:30:00]
Flight IATA:CT3232
Pilot Number:042
Company ICAO:CAT
Aircraft Type:A343/E
PAX:3
Departing Airport: LEPA
Destination Airport: LEMD
Alternate Airport:LEMG
Online: VATSIM
Route:EPAMA UN733 PRADO
Flight Level:F300
No Slew and time accel
No pause
Crash detect
Detect pilot in Cockpit between each 30 and 45 minutes
10:30 Zero fuel Weight: 392346 Lbs, Fuel Weight: 239125 Lbs
10:30 VATSIM:LEPA 020930Z 25012KT 9999 FEW020 20/15 Q1014 NOSIG
10:30 VATSIM:LEMD 020930Z 22012KT 9999 FEW015 13/09 Q1015 NOSIG
10:31 VOICE CATALONIAN
10:47 Parking Brakes off
11:00 Take-off
11:00 Take off Weight: 629051 Lbs
11:00 Wind: 242º @ 012 Knots Heading: 238º
11:00 POS N39º 32´ 37´´ E002º 42´ 12´´
11:00 Flaps:4 at 223 Knots
11:00 Flaps:3 at 232 Knots
11:00 Gear Up: 232 Knots
11:00 Flaps:1 at 231 Knots
11:02 Flaps:0 at 292 Knots
11:15 Wind:279º@051 Knots Heading: 267ºGround Speed: 356 Knots Altitude 25180 ft
11:22 TOC
11:22 Fuel Weight: 227175 Lb
11:30 Wind:275º@071 Knots Heading: 296º Ground Speed: 404 Knots Altitude 31030 ft
11:35 TOD
11:35 Fuel Weight: 223379 Lb
11:45 Wind:273º@050 Knots Heading: 324º Ground Speed: 373 Knots Altitude 21505 ft
11:57 Flaps:1 at 214 Knots
11:58 Flaps:3 at 190 Knots
12:00 Wind:244º@026 Knots Heading: 205º Ground Speed: 174 Knots Altitude 4822 ft
12:01 Flaps:4 at 176 Knots
12:01 Gear Down: 159 Knots
12:01 Flaps:5 at 159 Knots
12:05 TouchDown:Rate -142 ft/min Speed: 142 Knots
12:05 VATSIM:LEMD 021100Z 22013KT 9999 SCT022 15/09 Q1015 NOSIG
12:05 Land
12:05 Wind:224º@013 Knots
12:05 Heading: 184º
12:05 Flight Duration: 01:05
12:05 Landing Weight: 611322 Lbs
12:05 POS N40º 30´ 51´´ W003º 33´ 32´´
12:17 Parking brakes on
12:17 Block to Block Duration: 01:30
12:17 Final Fuel: 216129 Lbls
12:17 Spent Fuel: 22996 Lbls
12:17 Flight Length: 297 NM
12:17 TOD Land Length: 91 NM

Exportar CSV

Powered by Drupal - Modified by Danger4k